首页
METAR-TAF:

METAR-TAF

机场 :

巴尼亚卢卡, 波斯尼亚和黑塞哥维那

纬度: 44-47N, 经度: 017-13E, 海拔: 156米

当前天气观测

该预报发布于20分钟前的02:00 UTC
静风
温度 0°C
湿度 74%
气压 1030 hPa
能见度10公里或以上
1500米以下无云,无积雨云

METAR: LQBK 070200Z 00000KT CAVOK 00/M04 Q1030 NOSIG

时间: 04:20 (02:20 UTC)

预报

该预报发布于3小时和20分钟前的23:00 UTC
预报有效从07日的 00点(UTC)到 07日的 24点(UTC)
风速5节,风向北转东北
能见度10公里或以上
1500米以下无云,无积雨云
短暂存在
从 07日的 12点(UTC)到 07日的 20点(UTC)
风速10节,风向
几率 30% :
短暂存在
从 07日的 13点(UTC)到 07日的 17点(UTC)
风速15节,风向,有时为25节阵风

TAF: LQBK 062300Z 0700/0724 03005KT CAVOK TX19/0714Z TN02/0706Z TEMPO 0712/0720 09010KT PROB30 TEMPO 0713/0717 10015G25KT

超过4000个机场的气象观测和天气预报(METAR&TAF报告)。

可查询的气象台以黄色和红色小点在地图上表示。

将鼠标移到小点上方,可查看气象台名称。

然后点击查看天气观测和预报。

如需切换地图:点击带黑十字的绿色按钮放大地图;点击带横线的绿色按钮缩小地图;或者点击绿色箭头查看邻近地区的地图。


METAR-TAF: